Time;durP1;ratioP1;P1;durP2;ratioP2;P2;SDS_P1;SDS_P2;PMS_P1;PMS_P2;Temp;Humidity;BMP_temperature;BMP_pressure;BME280_temperature;BME280_humidity;BME280_pressure;Samples;Min_cycle;Max_cycle;Signal;HPM_P1;HPM_P2
2022/11/28 00:01:44;;;;;;;15.63;9.27;;;5.80;99.90;;;;;;4976335;28;20396;-78
2022/11/28 00:04:11;;;;;;;14.20;9.73;;;5.80;99.90;;;;;;4975784;28;20038;-76
2022/11/28 00:06:38;;;;;;;14.63;9.80;;;5.80;99.90;;;;;;4975843;28;20059;-77
2022/11/28 00:09:04;;;;;;;14.55;9.90;;;5.70;99.90;;;;;;4973959;28;20074;-77
2022/11/28 00:11:30;;;;;;;12.95;9.68;;;5.80;99.90;;;;;;4973348;28;20038;-77
2022/11/28 00:13:56;;;;;;;13.25;9.48;;;5.80;99.90;;;;;;4981854;28;20038;-77
2022/11/28 00:16:22;;;;;;;13.77;9.32;;;5.80;99.90;;;;;;4975565;28;20050;-78
2022/11/28 00:18:53;;;;;;;17.90;10.25;;;5.80;99.90;;;;;;4974254;28;20046;-77
2022/11/28 00:21:19;;;;;;;14.38;9.13;;;5.80;99.90;;;;;;4975072;28;20048;-76
2022/11/28 00:23:46;;;;;;;13.35;9.38;;;5.80;99.90;;;;;;4972619;28;20077;-76
2022/11/28 00:26:19;;;;;;;15.07;10.02;;;5.70;99.90;;;;;;5004594;28;20030;-76
2022/11/28 00:28:45;;;;;;;16.30;8.98;;;5.80;99.90;;;;;;5004641;28;20046;-78
2022/11/28 00:31:17;;;;;;;10.38;8.15;;;5.80;99.90;;;;;;4970366;28;20042;-77
2022/11/28 00:33:43;;;;;;;14.07;8.85;;;5.80;99.90;;;;;;4975830;28;20038;-78
2022/11/28 00:36:10;;;;;;;12.63;9.00;;;5.80;99.90;;;;;;4976120;28;20034;-76
2022/11/28 00:38:36;;;;;;;14.07;8.55;;;5.80;99.90;;;;;;4970540;28;20069;-78
2022/11/28 00:41:05;;;;;;;12.40;8.10;;;5.80;99.90;;;;;;4971461;28;20117;-77
2022/11/28 00:43:30;;;;;;;12.55;8.70;;;5.80;99.90;;;;;;4976176;28;20038;-77
2022/11/28 00:45:56;;;;;;;12.65;8.02;;;5.80;99.90;;;;;;4974075;28;20034;-77
2022/11/28 00:48:22;;;;;;;11.30;7.32;;;5.80;99.90;;;;;;4980819;28;20037;-77
2022/11/28 00:50:48;;;;;;;11.98;8.13;;;5.80;99.90;;;;;;4980082;28;20519;-77
2022/11/28 00:53:13;;;;;;;11.02;7.72;;;5.80;99.90;;;;;;4977004;28;20042;-77
2022/11/28 00:55:39;;;;;;;11.43;7.80;;;5.70;99.90;;;;;;4974139;28;20092;-77
2022/11/28 00:58:05;;;;;;;11.70;8.10;;;5.70;99.90;;;;;;4976094;28;20054;-77
2022/11/28 01:00:31;;;;;;;13.27;8.82;;;5.80;99.90;;;;;;4978383;28;20042;-78
2022/11/28 01:02:57;;;;;;;12.38;8.57;;;5.90;99.90;;;;;;5011876;28;20045;-78
2022/11/28 01:05:22;;;;;;;10.82;7.93;;;5.80;99.90;;;;;;4963315;28;20038;-78
2022/11/28 01:07:48;;;;;;;10.40;7.65;;;5.80;99.90;;;;;;4977966;28;20050;-77
2022/11/28 01:10:13;;;;;;;11.52;8.00;;;5.80;99.90;;;;;;4981667;28;20034;-77
2022/11/28 01:12:39;;;;;;;12.30;7.85;;;5.80;99.90;;;;;;4980670;28;20105;-77
2022/11/28 01:15:07;;;;;;;13.40;7.72;;;5.80;99.90;;;;;;4983672;28;20500;-76
2022/11/28 01:17:32;;;;;;;13.95;8.13;;;5.80;99.90;;;;;;4991855;28;20045;-77
2022/11/28 01:19:58;;;;;;;12.50;8.18;;;5.80;99.90;;;;;;4980425;28;20042;-77
2022/11/28 01:22:23;;;;;;;14.50;8.18;;;5.90;99.90;;;;;;4964098;28;20070;-77
2022/11/28 01:24:49;;;;;;;11.55;8.85;;;5.90;99.90;;;;;;4988758;28;20037;-78
2022/11/28 01:27:14;;;;;;;11.68;7.88;;;5.80;99.90;;;;;;4978381;28;20045;-79
2022/11/28 01:29:40;;;;;;;14.45;8.07;;;5.80;99.90;;;;;;4983412;28;20053;-78
2022/11/28 01:32:05;;;;;;;13.38;7.88;;;5.90;99.90;;;;;;4988847;28;20050;-78
2022/11/28 01:34:31;;;;;;;12.40;8.43;;;5.90;99.90;;;;;;4981547;28;20042;-78
2022/11/28 01:36:57;;;;;;;15.15;8.52;;;5.90;99.90;;;;;;4985607;28;20034;-77
2022/11/28 01:39:22;;;;;;;10.90;7.90;;;5.90;99.90;;;;;;4980335;28;20085;-78
2022/11/28 01:41:48;;;;;;;10.52;7.57;;;5.90;99.90;;;;;;4999515;28;20054;-78
2022/11/28 01:44:13;;;;;;;13.05;8.25;;;5.90;99.90;;;;;;4985731;28;20058;-78
2022/11/28 01:46:39;;;;;;;14.23;8.23;;;5.90;99.90;;;;;;4978355;28;20038;-78
2022/11/28 01:49:21;;;;;;;13.95;8.82;;;5.90;99.90;;;;;;4993759;28;20053;-75
2022/11/28 01:52:01;;;;;;;12.75;8.50;;;6.00;99.90;;;;;;4998908;28;20519;-79
2022/11/28 01:54:28;;;;;;;12.25;8.35;;;6.00;99.90;;;;;;4978275;28;20034;-77
2022/11/28 01:56:59;;;;;;;12.18;8.68;;;6.00;99.90;;;;;;4978974;28;20053;-77
2022/11/28 01:59:28;;;;;;;15.98;9.48;;;6.00;99.90;;;;;;4980423;28;20046;-79
2022/11/28 02:01:53;;;;;;;15.80;9.00;;;6.00;99.90;;;;;;4988714;28;20041;-77
2022/11/28 02:04:19;;;;;;;13.68;9.88;;;6.00;99.90;;;;;;5010682;28;20117;-79
2022/11/28 02:06:45;;;;;;;14.00;9.52;;;6.00;99.90;;;;;;4982043;28;20064;-79
2022/11/28 02:09:15;;;;;;;15.43;9.60;;;6.00;99.90;;;;;;4979735;28;20038;-78
2022/11/28 02:12:02;;;;;;;14.18;9.05;;;5.90;99.90;;;;;;4985161;28;20404;-78
2022/11/28 02:15:02;;;;;;;13.98;10.00;;;6.00;99.90;;;;;;4978335;28;20046;-78
2022/11/28 02:17:42;;;;;;;13.30;9.38;;;6.00;99.90;;;;;;4980676;28;20125;-77
2022/11/28 02:20:50;;;;;;;13.80;9.63;;;6.00;99.90;;;;;;4975676;28;20065;-77
2022/11/28 02:23:27;;;;;;;14.23;9.57;;;6.00;99.90;;;;;;4990917;28;20031;-78
2022/11/28 02:25:55;;;;;;;15.80;10.00;;;6.00;99.90;;;;;;4976533;28;20041;-77
2022/11/28 02:28:51;;;;;;;16.35;10.27;;;6.00;99.90;;;;;;4968408;28;20931;-77
2022/11/28 02:31:55;;;;;;;13.80;10.80;;;6.10;99.90;;;;;;4957516;28;20058;-78
2022/11/28 02:34:37;;;;;;;15.90;10.32;;;6.00;99.90;;;;;;4935644;29;20110;-77
2022/11/28 02:37:07;;;;;;;14.90;11.45;;;6.00;99.90;;;;;;4918388;29;20170;-78
2022/11/28 02:40:14;;;;;;;18.38;12.10;;;6.00;99.90;;;;;;4958003;28;20054;-77
2022/11/28 02:43:05;;;;;;;18.90;11.50;;;6.00;99.90;;;;;;4971213;28;20035;-77
2022/11/28 02:45:36;;;;;;;17.30;11.98;;;6.00;99.90;;;;;;4970595;28;20048;-78
2022/11/28 02:48:22;;;;;;;20.95;12.18;;;6.00;99.90;;;;;;4986384;28;20053;-77
2022/11/28 02:51:01;;;;;;;16.30;11.35;;;6.00;99.90;;;;;;4959813;28;20034;-78
2022/11/28 02:53:30;;;;;;;17.90;12.18;;;6.00;99.90;;;;;;4976771;28;20088;-77
2022/11/28 02:55:57;;;;;;;22.17;11.88;;;6.00;99.90;;;;;;4978197;28;20433;-78
2022/11/28 02:58:23;;;;;;;19.65;11.98;;;6.00;99.90;;;;;;4976075;28;20546;-76
2022/11/28 03:00:50;;;;;;;20.17;13.13;;;6.00;99.90;;;;;;4976885;28;20039;-78
2022/11/28 03:03:47;;;;;;;18.05;11.63;;;6.00;99.90;;;;;;4979848;28;20370;-77
2022/11/28 03:06:50;;;;;;;17.73;12.75;;;6.10;99.90;;;;;;4973104;28;20034;-77
2022/11/28 03:09:47;;;;;;;20.70;12.45;;;6.10;99.90;;;;;;4959187;28;20092;-77
2022/11/28 03:12:43;;;;;;;16.40;11.13;;;6.10;99.90;;;;;;4974941;28;20046;-77
2022/11/28 03:15:13;;;;;;;15.52;11.77;;;6.10;99.90;;;;;;4975358;28;20128;-77
2022/11/28 03:18:10;;;;;;;17.40;12.00;;;6.10;99.90;;;;;;4975846;28;20058;-77
2022/11/28 03:20:49;;;;;;;24.48;12.93;;;6.10;99.90;;;;;;4973234;28;20039;-77
2022/11/28 03:23:29;;;;;;;19.63;12.77;;;6.10;99.90;;;;;;4959380;28;20053;-78
2022/11/28 03:26:05;;;;;;;18.20;12.93;;;6.10;99.90;;;;;;4974211;28;20030;-78
2022/11/28 03:28:39;;;;;;;18.42;12.18;;;6.10;99.90;;;;;;4977252;28;20106;-77
2022/11/28 03:31:27;;;;;;;20.40;12.68;;;6.10;99.90;;;;;;4970982;28;20038;-77
2022/11/28 03:33:55;;;;;;;18.98;12.98;;;6.10;99.90;;;;;;4979919;28;20042;-77
2022/11/28 03:36:26;;;;;;;21.25;13.30;;;6.10;99.90;;;;;;4976746;28;20042;-78
2022/11/28 03:39:09;;;;;;;18.08;12.95;;;6.10;99.90;;;;;;4975301;28;20508;-78
2022/11/28 03:41:39;;;;;;;19.20;13.63;;;6.20;99.90;;;;;;4971591;28;20530;-79
2022/11/28 03:44:10;;;;;;;17.17;13.48;;;6.20;99.90;;;;;;4978372;28;20412;-77
2022/11/28 03:46:38;;;;;;;21.25;14.48;;;6.10;99.90;;;;;;4978972;28;20068;-77
2022/11/28 03:49:08;;;;;;;19.88;14.32;;;6.20;99.90;;;;;;4979848;28;20070;-78
2022/11/28 03:51:43;;;;;;;20.92;14.52;;;6.20;99.90;;;;;;4968233;28;20518;-78
2022/11/28 03:54:26;;;;;;;27.45;17.23;;;6.20;99.90;;;;;;4982043;28;20496;-78
2022/11/28 03:57:13;;;;;;;20.38;14.93;;;6.20;99.90;;;;;;4977701;28;20127;-78
2022/11/28 03:59:47;;;;;;;22.45;15.63;;;6.20;99.90;;;;;;4975840;28;20134;-78
2022/11/28 04:02:38;;;;;;;20.38;15.13;;;6.20;99.90;;;;;;4981632;28;20077;-76
2022/11/28 04:05:28;;;;;;;25.48;17.15;;;6.30;99.90;;;;;;4972019;28;20052;-78
2022/11/28 04:07:57;;;;;;;21.38;15.65;;;6.30;99.90;;;;;;4963542;28;20042;-77
2022/11/28 04:10:34;;;;;;;23.25;17.17;;;6.30;99.90;;;;;;4979957;28;20412;-77
2022/11/28 04:13:21;;;;;;;26.52;18.10;;;6.30;99.90;;;;;;4985001;28;20042;-77
2022/11/28 04:15:53;;;;;;;23.58;17.23;;;6.30;99.90;;;;;;4980218;28;20042;-77
2022/11/28 04:18:50;;;;;;;24.00;17.70;;;6.40;99.90;;;;;;4987453;28;20049;-78
2022/11/28 04:21:43;;;;;;;24.88;17.77;;;6.40;99.90;;;;;;5004781;28;20042;-77
2022/11/28 04:24:13;;;;;;;25.00;18.02;;;6.40;99.90;;;;;;4994493;28;20037;-77
2022/11/28 04:26:47;;;;;;;25.30;19.27;;;6.40;99.90;;;;;;4974392;28;20038;-78
2022/11/28 04:29:16;;;;;;;25.30;18.63;;;6.40;99.90;;;;;;5004448;28;20039;-77
2022/11/28 04:31:44;;;;;;;26.90;18.98;;;6.50;99.90;;;;;;4974936;28;20035;-78
2022/11/28 04:34:14;;;;;;;26.10;18.40;;;6.70;99.90;;;;;;4972805;28;20043;-78
2022/11/28 04:36:43;;;;;;;26.58;19.63;;;6.50;99.90;;;;;;4990414;28;20046;-78
2022/11/28 04:39:14;;;;;;;25.17;19.25;;;6.50;99.90;;;;;;4975036;28;20097;-78
2022/11/28 04:41:54;;;;;;;28.02;19.55;;;6.50;99.90;;;;;;4978585;28;20030;-78
2022/11/28 04:44:37;;;;;;;28.75;19.52;;;6.60;99.90;;;;;;4986930;28;20065;-78
2022/11/28 04:47:03;;;;;;;27.17;19.15;;;6.60;99.90;;;;;;4979355;28;20057;-76
2022/11/28 04:49:29;;;;;;;25.17;19.33;;;6.60;99.90;;;;;;4975858;28;20042;-78
2022/11/28 04:52:17;;;;;;;27.92;18.95;;;6.70;99.90;;;;;;5009351;28;20070;-79
2022/11/28 04:54:51;;;;;;;26.33;19.25;;;6.70;99.90;;;;;;4959462;28;20042;-80
2022/11/28 04:57:25;;;;;;;29.30;18.95;;;6.70;99.90;;;;;;4974814;28;20056;-72
2022/11/28 04:59:52;;;;;;;28.65;19.58;;;6.70;99.90;;;;;;4974697;28;20378;-78
2022/11/28 05:02:20;;;;;;;26.92;19.83;;;6.70;99.90;;;;;;4974249;28;20035;-77
2022/11/28 05:04:46;;;;;;;27.67;19.30;;;6.70;99.90;;;;;;4958686;28;20046;-77
2022/11/28 05:07:11;;;;;;;25.20;19.05;;;6.80;99.90;;;;;;4974895;28;20042;-77
2022/11/28 05:09:37;;;;;;;29.17;20.83;;;6.80;99.90;;;;;;4974081;28;20093;-77
2022/11/28 05:12:04;;;;;;;25.70;18.77;;;6.80;99.90;;;;;;5007132;28;20121;-77
2022/11/28 05:14:29;;;;;;;29.00;19.15;;;6.80;99.90;;;;;;4958051;28;20049;-77
2022/11/28 05:16:55;;;;;;;25.58;18.77;;;6.80;99.90;;;;;;4975037;28;20258;-77
2022/11/28 05:19:20;;;;;;;25.88;19.02;;;6.80;99.90;;;;;;4974446;28;20046;-77
2022/11/28 05:21:46;;;;;;;27.33;19.10;;;6.80;99.90;;;;;;4974253;28;20074;-77
2022/11/28 05:24:11;;;;;;;28.98;19.30;;;6.90;99.90;;;;;;4958424;28;20038;-78
2022/11/28 05:26:37;;;;;;;27.77;20.02;;;6.90;99.90;;;;;;4972838;28;20467;-78
2022/11/28 05:29:03;;;;;;;24.85;18.05;;;6.90;99.90;;;;;;4974837;28;20057;-77
2022/11/28 05:31:29;;;;;;;25.77;19.50;;;6.90;99.90;;;;;;4975057;28;20523;-78
2022/11/28 05:33:55;;;;;;;25.77;18.95;;;6.90;99.90;;;;;;5007692;28;20050;-78
2022/11/28 05:36:21;;;;;;;27.00;19.38;;;6.90;99.90;;;;;;4959061;28;20047;-78
2022/11/28 05:38:47;;;;;;;25.10;17.55;;;6.90;99.90;;;;;;4958615;28;20504;-78
2022/11/28 05:41:39;;;;;;;24.83;18.50;;;6.90;99.90;;;;;;4974698;28;20052;-77
2022/11/28 05:44:04;;;;;;;26.02;18.13;;;6.90;99.90;;;;;;4973162;28;20054;-77
2022/11/28 05:46:30;;;;;;;25.00;18.58;;;6.90;99.90;;;;;;4977029;28;20121;-77
2022/11/28 05:48:56;;;;;;;25.40;17.60;;;7.00;99.90;;;;;;5010291;28;20042;-78
2022/11/28 05:51:21;;;;;;;22.83;17.60;;;6.90;99.90;;;;;;4977644;28;20134;-77
2022/11/28 05:53:47;;;;;;;24.85;18.92;;;6.90;99.90;;;;;;5010772;28;20037;-77
2022/11/28 05:56:15;;;;;;;25.90;18.17;;;7.00;99.90;;;;;;4977459;28;20030;-77
2022/11/28 05:58:42;;;;;;;25.17;18.33;;;7.00;99.90;;;;;;4976394;28;20050;-77
2022/11/28 06:01:18;;;;;;;24.88;18.17;;;7.00;99.90;;;;;;4993939;28;20081;-77
2022/11/28 06:03:44;;;;;;;26.95;18.52;;;7.00;99.90;;;;;;4977405;28;20051;-77
2022/11/28 06:06:18;;;;;;;25.75;18.00;;;7.00;99.90;;;;;;4978119;28;20042;-78
2022/11/28 06:08:45;;;;;;;29.00;18.35;;;7.00;99.90;;;;;;4977334;28;20135;-77
2022/11/28 06:11:13;;;;;;;25.08;18.55;;;7.10;99.90;;;;;;4977749;28;20046;-77
2022/11/28 06:13:39;;;;;;;26.52;18.20;;;7.10;99.90;;;;;;4977817;28;20042;-78
2022/11/28 06:16:09;;;;;;;25.80;18.83;;;7.10;99.90;;;;;;4977471;28;20058;-78
2022/11/28 06:18:35;;;;;;;25.10;18.15;;;7.10;99.90;;;;;;4977567;28;20042;-78
2022/11/28 06:21:02;;;;;;;25.48;18.13;;;7.10;99.90;;;;;;4977562;28;20039;-78
2022/11/28 06:23:28;;;;;;;24.38;16.50;;;7.10;99.90;;;;;;4978028;28;20039;-78
2022/11/28 06:25:53;;;;;;;24.55;18.05;;;7.10;99.90;;;;;;4976539;28;20413;-78
2022/11/28 06:28:19;;;;;;;25.40;17.00;;;7.10;99.90;;;;;;4976412;28;20030;-79
2022/11/28 06:30:44;;;;;;;24.40;17.17;;;7.20;99.90;;;;;;5009858;28;20042;-78
2022/11/28 06:33:13;;;;;;;25.08;16.27;;;7.20;99.90;;;;;;5008355;28;20657;-79
2022/11/28 06:35:39;;;;;;;23.77;16.40;;;7.10;99.90;;;;;;4991283;28;20034;-78
2022/11/28 06:38:08;;;;;;;25.17;16.30;;;7.20;99.90;;;;;;4976511;28;20038;-78
2022/11/28 06:40:33;;;;;;;21.92;14.95;;;7.20;99.90;;;;;;4977266;28;20121;-78
2022/11/28 06:42:59;;;;;;;23.30;15.30;;;7.20;99.90;;;;;;4992917;28;20070;-78
2022/11/28 06:45:24;;;;;;;23.70;15.20;;;7.20;99.90;;;;;;4974813;28;20141;-77
2022/11/28 06:47:50;;;;;;;20.40;14.77;;;7.20;99.90;;;;;;4975489;28;20045;-78
2022/11/28 06:50:15;;;;;;;22.70;14.95;;;7.20;99.90;;;;;;4975425;28;20143;-78
2022/11/28 06:52:41;;;;;;;20.58;14.68;;;7.20;99.90;;;;;;4975517;28;20050;-77
2022/11/28 06:55:07;;;;;;;21.08;14.35;;;7.20;99.90;;;;;;5007423;28;20042;-77
2022/11/28 06:57:33;;;;;;;19.75;14.02;;;7.20;99.90;;;;;;4973769;28;20042;-78
2022/11/28 06:59:58;;;;;;;22.85;14.50;;;7.20;99.90;;;;;;4974211;28;20065;-77
2022/11/28 07:02:24;;;;;;;22.52;14.00;;;7.20;99.90;;;;;;4975537;28;20072;-78
2022/11/28 07:04:50;;;;;;;19.00;13.30;;;7.20;99.90;;;;;;5008517;28;20042;-77
2022/11/28 07:07:16;;;;;;;18.98;13.30;;;7.20;99.90;;;;;;4960176;28;20042;-78
2022/11/28 07:09:42;;;;;;;20.30;13.95;;;7.30;99.90;;;;;;4975213;28;20093;-77
2022/11/28 07:12:07;;;;;;;19.25;13.55;;;7.20;99.90;;;;;;4975425;28;20072;-77
2022/11/28 07:14:33;;;;;;;19.63;13.77;;;7.20;99.90;;;;;;4974904;28;20038;-77
2022/11/28 07:16:59;;;;;;;19.88;13.18;;;7.20;99.90;;;;;;4974582;28;20065;-78
2022/11/28 07:19:24;;;;;;;16.58;12.82;;;7.20;99.90;;;;;;5006704;28;20046;-78
2022/11/28 07:21:50;;;;;;;21.05;13.43;;;7.30;99.90;;;;;;5007105;28;20097;-78
2022/11/28 07:24:17;;;;;;;23.02;13.85;;;7.20;99.90;;;;;;4974505;28;20043;-80
2022/11/28 07:26:44;;;;;;;21.10;13.63;;;7.20;99.90;;;;;;4974904;28;20508;-78
2022/11/28 07:29:15;;;;;;;21.80;13.63;;;7.30;99.90;;;;;;4976094;28;20038;-78
2022/11/28 07:31:41;;;;;;;18.50;13.77;;;7.20;99.90;;;;;;4976168;28;20496;-77
2022/11/28 07:34:08;;;;;;;20.85;14.32;;;7.20;99.90;;;;;;4975780;28;20041;-78
2022/11/28 07:36:34;;;;;;;18.92;13.63;;;7.30;99.90;;;;;;4975671;28;20571;-78
2022/11/28 07:39:02;;;;;;;17.88;13.25;;;7.20;99.90;;;;;;5007392;28;20038;-77
2022/11/28 07:41:28;;;;;;;19.25;12.57;;;7.20;99.90;;;;;;4975644;28;20046;-78
2022/11/28 07:43:59;;;;;;;19.75;13.45;;;7.20;99.90;;;;;;4976391;28;20606;-77
2022/11/28 07:46:26;;;;;;;20.40;13.55;;;7.30;99.90;;;;;;4976096;28;20038;-78
2022/11/28 07:48:52;;;;;;;19.10;13.82;;;7.20;99.90;;;;;;4975619;28;20034;-78
2022/11/28 07:51:20;;;;;;;20.40;13.48;;;7.30;99.90;;;;;;5007894;28;20051;-77
2022/11/28 07:53:46;;;;;;;18.92;13.50;;;7.30;99.90;;;;;;4975874;28;20043;-78
2022/11/28 07:56:15;;;;;;;20.92;14.32;;;7.20;99.90;;;;;;4958992;28;20038;-78
2022/11/28 07:58:43;;;;;;;21.20;14.38;;;7.30;99.90;;;;;;4975145;28;20050;-78
2022/11/28 08:01:17;;;;;;;21.60;13.75;;;7.20;99.90;;;;;;4956196;28;20540;-78
2022/11/28 08:03:46;;;;;;;;;;;7.30;99.90;;;;;;4972993;28;20043;-78
2022/11/28 08:06:12;;;;;;;20.63;14.15;;;7.30;99.90;;;;;;4970067;28;19917;-78
2022/11/28 08:08:37;;;;;;;21.50;14.63;;;7.20;99.90;;;;;;4974297;28;20070;-78
2022/11/28 08:11:06;;;;;;;22.42;15.18;;;7.30;99.90;;;;;;4992558;28;20144;-77
2022/11/28 08:13:32;;;;;;;23.42;15.60;;;7.30;99.90;;;;;;4975037;28;20038;-78
2022/11/28 08:16:01;;;;;;;23.50;15.05;;;7.30;99.90;;;;;;4975054;28;20523;-77
2022/11/28 08:18:27;;;;;;;22.83;15.38;;;7.30;99.90;;;;;;4974988;28;20042;-78
2022/11/28 08:21:05;;;;;;;23.30;15.23;;;7.30;99.90;;;;;;5007442;28;20489;-77
2022/11/28 08:23:33;;;;;;;23.50;15.70;;;7.30;99.90;;;;;;4958125;28;20122;-78
2022/11/28 08:26:00;;;;;;;22.05;15.38;;;7.30;99.90;;;;;;4975249;28;20058;-77
2022/11/28 08:28:27;;;;;;;23.17;15.55;;;7.40;99.90;;;;;;4975056;28;20045;-77
2022/11/28 08:30:52;;;;;;;22.35;15.20;;;7.30;99.90;;;;;;4974745;28;20578;-77
2022/11/28 08:33:18;;;;;;;21.63;14.60;;;7.30;99.90;;;;;;4974888;28;20050;-77
2022/11/28 08:35:44;;;;;;;21.02;14.15;;;7.40;99.90;;;;;;4974637;28;20038;-78
2022/11/28 08:38:09;;;;;;;19.92;13.65;;;7.30;99.90;;;;;;5007388;28;20034;-78
2022/11/28 08:40:35;;;;;;;22.55;14.13;;;7.40;99.90;;;;;;4974191;28;20046;-77
2022/11/28 08:43:00;;;;;;;23.45;14.45;;;7.40;99.90;;;;;;4974641;28;20049;-77
2022/11/28 08:45:26;;;;;;;20.30;13.60;;;7.40;99.90;;;;;;4974393;28;20046;-78
2022/11/28 08:47:51;;;;;;;19.13;12.93;;;7.40;99.90;;;;;;4991344;28;20125;-78
2022/11/28 08:50:17;;;;;;;17.77;12.93;;;7.40;99.90;;;;;;5007255;28;20047;-78
2022/11/28 08:52:42;;;;;;;18.15;12.00;;;7.40;99.90;;;;;;4974535;28;20043;-77
2022/11/28 08:55:08;;;;;;;17.65;11.90;;;7.40;99.90;;;;;;4974638;28;20049;-77
2022/11/28 08:57:34;;;;;;;17.70;11.48;;;7.40;99.90;;;;;;4974510;28;20412;-78
2022/11/28 08:59:59;;;;;;;16.73;11.80;;;7.40;99.90;;;;;;4992281;28;20122;-77
2022/11/28 09:02:25;;;;;;;15.90;11.27;;;7.40;99.90;;;;;;4992070;28;20042;-78
2022/11/28 09:04:50;;;;;;;15.85;11.90;;;7.50;99.90;;;;;;5001669;28;20033;-77
2022/11/28 09:07:16;;;;;;;17.23;11.38;;;7.50;99.90;;;;;;4973771;28;20049;-78
2022/11/28 09:09:42;;;;;;;14.13;10.30;;;7.50;99.90;;;;;;4958152;28;20407;-77
2022/11/28 09:12:07;;;;;;;15.30;10.57;;;7.50;99.90;;;;;;5007401;28;20035;-77
2022/11/28 09:14:33;;;;;;;16.33;11.20;;;7.50;99.90;;;;;;5007433;28;20050;-78
2022/11/28 09:16:58;;;;;;;14.10;10.10;;;7.50;99.90;;;;;;4975295;28;20074;-78
2022/11/28 09:19:24;;;;;;;14.18;9.70;;;7.50;99.90;;;;;;4973945;28;20050;-77
2022/11/28 09:21:49;;;;;;;13.38;8.98;;;7.50;99.90;;;;;;4977502;28;20061;-78
2022/11/28 09:24:15;;;;;;;13.15;9.10;;;7.50;99.90;;;;;;4978712;28;20100;-78
2022/11/28 09:26:41;;;;;;;12.85;9.43;;;7.50;99.90;;;;;;4979400;28;20077;-78
2022/11/28 09:29:07;;;;;;;11.82;8.73;;;7.50;99.90;;;;;;4994398;28;20073;-78
2022/11/28 09:31:32;;;;;;;14.55;8.82;;;7.50;99.90;;;;;;4978396;28;20078;-78
2022/11/28 09:33:58;;;;;;;11.43;8.38;;;7.60;99.90;;;;;;4978279;28;20042;-78
2022/11/28 09:36:24;;;;;;;11.55;8.00;;;7.60;99.90;;;;;;4978743;28;20050;-79
2022/11/28 09:38:50;;;;;;;10.25;7.57;;;7.60;99.90;;;;;;4979110;28;20094;-78
2022/11/28 09:41:37;;;;;;;10.57;8.07;;;7.60;99.90;;;;;;4978800;28;20056;-78
2022/11/28 09:44:13;;;;;;;10.68;8.20;;;7.60;99.90;;;;;;4978713;28;20038;-79
2022/11/28 09:46:40;;;;;;;10.50;7.47;;;7.60;99.90;;;;;;5009870;28;20049;-78
2022/11/28 09:49:44;;;;;;;9.77;7.25;;;7.60;99.90;;;;;;4976582;28;20424;-78
2022/11/28 09:52:21;;;;;;;9.30;7.25;;;7.60;99.90;;;;;;4973248;28;20381;-78
2022/11/28 09:54:55;;;;;;;9.18;7.22;;;7.60;99.90;;;;;;4977022;28;20105;-78
2022/11/28 09:57:30;;;;;;;9.75;7.22;;;7.70;99.90;;;;;;4977526;28;20053;-78
2022/11/28 09:59:56;;;;;;;10.50;7.75;;;7.60;99.90;;;;;;5009980;28;20470;-78
2022/11/28 10:02:42;;;;;;;9.65;7.22;;;7.70;99.90;;;;;;4984749;28;20129;-78
2022/11/28 10:05:34;;;;;;;10.57;7.22;;;7.70;99.90;;;;;;4949684;28;20038;-78
2022/11/28 10:08:19;;;;;;;9.40;7.45;;;7.70;99.90;;;;;;4975270;28;20066;-78
2022/11/28 10:11:23;;;;;;;9.93;7.60;;;7.70;99.90;;;;;;4994408;28;20057;-78
2022/11/28 10:13:48;;;;;;;8.85;7.25;;;7.70;99.90;;;;;;4991806;28;20044;-78
2022/11/28 10:16:40;;;;;;;10.80;7.35;;;7.70;99.90;;;;;;4977435;28;20050;-78
2022/11/28 10:19:12;;;;;;;9.48;7.05;;;7.80;99.90;;;;;;4977526;28;20081;-78
2022/11/28 10:21:42;;;;;;;11.27;7.40;;;7.80;99.90;;;;;;4949663;28;20409;-78
2022/11/28 10:24:16;;;;;;;10.05;7.40;;;7.80;99.90;;;;;;4960825;28;20082;-78
2022/11/28 10:26:49;;;;;;;11.15;7.55;;;7.80;99.90;;;;;;4960991;28;20034;-78
2022/11/28 10:29:25;;;;;;;9.27;7.18;;;7.80;99.90;;;;;;4993604;28;20553;-78
2022/11/28 10:31:56;;;;;;;9.38;7.13;;;7.80;99.90;;;;;;4961486;28;20085;-78
2022/11/28 10:34:33;;;;;;;9.65;7.43;;;7.80;99.90;;;;;;4961242;28;20758;-78
2022/11/28 10:37:20;;;;;;;10.38;7.05;;;7.80;99.90;;;;;;4977555;28;20050;-78
2022/11/28 10:39:46;;;;;;;11.07;7.97;;;7.90;99.90;;;;;;5009176;28;20121;-78
2022/11/28 10:42:25;;;;;;;9.30;6.70;;;7.90;99.90;;;;;;4976271;28;20070;-78
2022/11/28 10:45:15;;;;;;;9.65;7.20;;;7.90;99.90;;;;;;4976974;28;20038;-78
2022/11/28 10:47:52;;;;;;;11.20;7.82;;;7.90;99.90;;;;;;5008987;28;20097;-78
2022/11/28 10:50:36;;;;;;;10.68;7.47;;;7.90;99.90;;;;;;4957515;28;20051;-78
2022/11/28 10:53:01;;;;;;;;;;;8.00;99.90;;;;;;4975446;28;20074;-78
2022/11/28 10:55:43;;;;;;;11.25;7.22;;;8.00;99.90;;;;;;4976673;28;19917;-79
2022/11/28 10:58:22;;;;;;;10.32;7.25;;;8.00;99.90;;;;;;4976319;28;20038;-78
2022/11/28 11:00:53;;;;;;;10.10;7.13;;;8.00;99.90;;;;;;4960156;28;20046;-78
2022/11/28 11:03:29;;;;;;;15.82;8.00;;;8.00;99.90;;;;;;4976539;28;20481;-78
2022/11/28 11:05:55;;;;;;;10.25;6.65;;;8.00;99.90;;;;;;4977301;28;20039;-78
2022/11/28 11:08:35;;;;;;;9.82;6.55;;;8.00;99.90;;;;;;4992918;28;20046;-78
2022/11/28 11:11:20;;;;;;;10.15;6.80;;;8.10;99.90;;;;;;4961310;28;20041;-78
2022/11/28 11:14:23;;;;;;;9.10;6.57;;;8.10;99.90;;;;;;4958230;28;20070;-78
2022/11/28 11:16:53;;;;;;;9.75;6.95;;;8.20;99.90;;;;;;4982699;28;20097;-78
2022/11/28 11:19:29;;;;;;;9.10;6.70;;;8.20;99.90;;;;;;4961608;28;20046;-78
2022/11/28 11:22:01;;;;;;;9.82;7.13;;;8.20;99.90;;;;;;4977471;28;20455;-79
2022/11/28 11:24:27;;;;;;;9.10;6.88;;;8.20;99.90;;;;;;4976777;28;20551;-79
2022/11/28 11:26:53;;;;;;;7.78;6.38;;;8.30;99.90;;;;;;4993900;28;20046;-79
2022/11/28 11:29:40;;;;;;;9.50;6.82;;;8.20;99.90;;;;;;4977596;28;20042;-79
2022/11/28 11:32:22;;;;;;;9.18;6.68;;;8.30;99.90;;;;;;4976280;28;20097;-78
2022/11/28 11:34:48;;;;;;;10.15;6.97;;;8.30;99.90;;;;;;4976520;28;20172;-78
2022/11/28 11:37:39;;;;;;;9.57;6.95;;;8.30;99.90;;;;;;4976286;28;20588;-78
2022/11/28 11:40:27;;;;;;;10.45;7.30;;;8.30;99.90;;;;;;4975544;28;20053;-79
2022/11/28 11:42:59;;;;;;;9.88;6.75;;;8.30;99.90;;;;;;4980281;28;20065;-79
2022/11/28 11:45:34;;;;;;;10.73;7.35;;;8.30;99.90;;;;;;4959858;28;20038;-78
2022/11/28 11:48:02;;;;;;;9.55;6.97;;;8.40;99.90;;;;;;4992379;28;20210;-78
2022/11/28 11:50:30;;;;;;;10.30;7.13;;;8.40;99.90;;;;;;4977564;28;20526;-79
2022/11/28 11:53:04;;;;;;;9.80;7.53;;;8.40;99.90;;;;;;4961295;28;20035;-79
2022/11/28 11:55:33;;;;;;;9.43;6.60;;;8.40;99.90;;;;;;4977729;28;20046;-78
2022/11/28 11:58:01;;;;;;;9.15;6.78;;;8.50;99.90;;;;;;4976672;28;20031;-78
2022/11/28 12:00:35;;;;;;;10.05;7.15;;;8.50;99.90;;;;;;4974105;28;20081;-79
2022/11/28 12:03:09;;;;;;;;;;;8.50;99.90;;;;;;4976104;28;20030;-79
2022/11/28 12:05:58;;;;;;;9.73;6.68;;;8.50;99.90;;;;;;4971093;28;19965;-79
2022/11/28 12:08:46;;;;;;;10.48;6.93;;;8.50;99.90;;;;;;4968997;28;20042;-79
2022/11/28 12:11:26;;;;;;;10.05;7.35;;;8.50;99.90;;;;;;4974272;28;20125;-79
2022/11/28 12:13:52;;;;;;;8.95;6.72;;;8.50;99.90;;;;;;4959097;28;20030;-78
2022/11/28 12:16:48;;;;;;;9.70;6.90;;;8.50;99.90;;;;;;4975570;28;20173;-79
2022/11/28 12:19:22;;;;;;;9.25;7.30;;;8.60;99.90;;;;;;4976863;28;20428;-79
2022/11/28 12:22:12;;;;;;;9.15;6.90;;;8.60;99.90;;;;;;4976309;28;20046;-79
2022/11/28 12:24:59;;;;;;;9.65;7.00;;;8.60;99.90;;;;;;4975418;28;20105;-78
2022/11/28 12:27:51;;;;;;;10.20;7.35;;;8.60;99.90;;;;;;4977111;28;20053;-79
2022/11/28 12:30:50;;;;;;;9.50;6.80;;;8.70;99.90;;;;;;4976804;28;20097;-79
2022/11/28 12:33:24;;;;;;;11.95;8.38;;;8.60;99.90;;;;;;4976092;28;20054;-78
2022/11/28 12:36:28;;;;;;;10.32;7.53;;;8.60;99.90;;;;;;4975314;28;20136;-78
2022/11/28 12:39:04;;;;;;;11.75;7.18;;;8.60;99.90;;;;;;5008681;28;20046;-78
2022/11/28 12:41:44;;;;;;;9.85;7.15;;;8.70;99.90;;;;;;4975523;28;20046;-79
2022/11/28 12:44:40;;;;;;;11.15;6.93;;;8.70;99.90;;;;;;4975858;28;20034;-78
2022/11/28 12:47:32;;;;;;;10.48;6.97;;;8.70;99.90;;;;;;4975927;28;20069;-78
2022/11/28 12:50:24;;;;;;;9.52;7.10;;;8.70;99.90;;;;;;4972666;28;20089;-77
2022/11/28 12:53:11;;;;;;;9.02;6.47;;;8.70;99.90;;;;;;4962187;28;20046;-78
2022/11/28 12:56:03;;;;;;;8.73;6.43;;;8.70;99.90;;;;;;4977316;28;20133;-78
2022/11/28 12:58:53;;;;;;;9.27;6.85;;;8.70;99.90;;;;;;5011097;28;20046;-79
2022/11/28 13:01:21;;;;;;;9.82;6.45;;;8.70;99.90;;;;;;4978970;28;20415;-77
2022/11/28 13:04:19;;;;;;;10.63;6.88;;;8.70;99.90;;;;;;4978958;28;20062;-78
2022/11/28 13:07:09;;;;;;;8.82;6.38;;;8.70;99.90;;;;;;4978713;28;20054;-78
2022/11/28 13:09:53;;;;;;;9.38;6.75;;;8.70;99.90;;;;;;4978522;28;20038;-78
2022/11/28 13:12:33;;;;;;;8.73;6.47;;;8.70;99.90;;;;;;4964289;28;20058;-79